Time;durP1;ratioP1;P1;durP2;ratioP2;P2;SDS_P1;SDS_P2;PMS_P1;PMS_P2;Temp;Humidity;BMP_temperature;BMP_pressure;BME280_temperature;BME280_humidity;BME280_pressure;Samples;Min_cycle;Max_cycle;Signal;HPM_P1;HPM_P2
2023/10/17 00:00:12;;;;;;;5.22;3.03;;;5.20;68.70;;;;;;5072726;28;20048;-69
2023/10/17 00:02:40;;;;;;;2.83;1.70;;;5.20;68.60;;;;;;5071128;28;20049;-69
2023/10/17 00:05:10;;;;;;;7.45;3.15;;;5.20;68.80;;;;;;5072100;28;20041;-69
2023/10/17 00:07:36;;;;;;;6.15;2.63;;;5.20;68.80;;;;;;5071582;28;20029;-69
2023/10/17 00:10:02;;;;;;;4.50;2.80;;;5.20;68.90;;;;;;5072707;28;20059;-69
2023/10/17 00:12:39;;;;;;;3.78;2.55;;;5.20;68.90;;;;;;5071957;28;20041;-69
2023/10/17 00:15:27;;;;;;;3.38;2.00;;;5.20;69.00;;;;;;5070978;28;20040;-70
2023/10/17 00:18:11;;;;;;;3.97;1.77;;;5.20;68.90;;;;;;5072634;28;20603;-68
2023/10/17 00:20:37;;;;;;;2.80;1.92;;;5.20;68.80;;;;;;5070232;28;20040;-69
2023/10/17 00:23:06;;;;;;;4.13;1.98;;;5.10;68.10;;;;;;5071168;28;20029;-68
2023/10/17 00:25:33;;;;;;;5.75;2.08;;;5.20;68.60;;;;;;5070596;28;20048;-69
2023/10/17 00:27:59;;;;;;;2.45;1.02;;;5.10;68.60;;;;;;5072350;28;20551;-69
2023/10/17 00:30:29;;;;;;;1.92;1.35;;;5.10;68.70;;;;;;5070219;28;20045;-69
2023/10/17 00:32:55;;;;;;;2.63;1.08;;;5.10;68.80;;;;;;5072337;28;20025;-69
2023/10/17 00:35:25;;;;;;;1.40;0.98;;;5.10;69.90;;;;;;5071774;28;20113;-69
2023/10/17 00:37:58;;;;;;;5.28;1.02;;;5.00;69.00;;;;;;5072957;28;20055;-69
2023/10/17 00:43:12;;;;;;;2.00;1.75;;;5.00;69.10;;;;;;5071191;28;20052;-69
2023/10/17 00:45:38;;;;;;;1.00;0.55;;;5.00;68.90;;;;;;5071733;28;20033;-69
2023/10/17 00:48:17;;;;;;;2.80;1.85;;;5.00;69.10;;;;;;5071117;28;20546;-69
2023/10/17 00:50:47;;;;;;;2.53;1.27;;;4.90;69.10;;;;;;5070194;28;20044;-68
2023/10/17 00:53:13;;;;;;;1.33;0.85;;;4.90;69.20;;;;;;5070962;28;20103;-69
2023/10/17 00:55:40;;;;;;;;;;;4.90;69.30;;;;;;5070936;28;20416;-69
2023/10/17 00:58:06;;;;;;;4.57;1.00;;;4.90;69.20;;;;;;5072363;28;20372;-68
2023/10/17 01:03:18;;;;;;;3.95;2.13;;;4.90;69.50;;;;;;5075778;28;20691;-69
2023/10/17 01:08:50;;;;;;;1.33;0.93;;;4.80;69.60;;;;;;5075079;28;19933;-69
2023/10/17 01:14:23;;;;;;;1.25;0.73;;;4.80;69.60;;;;;;5075857;28;20037;-69
2023/10/17 01:16:53;;;;;;;1.15;0.60;;;4.80;69.80;;;;;;5075145;28;20032;-69
2023/10/17 01:19:21;;;;;;;3.00;0.90;;;4.80;69.80;;;;;;5074707;28;20473;-69
2023/10/17 01:21:48;;;;;;;4.68;2.60;;;4.80;69.90;;;;;;5073184;28;20386;-68
2023/10/17 01:24:15;;;;;;;3.83;1.63;;;4.80;69.80;;;;;;5057636;28;20052;-69
2023/10/17 01:26:45;;;;;;;0.63;0.55;;;4.90;69.90;;;;;;5075606;28;20079;-69
2023/10/17 01:29:12;;;;;;;0.75;0.57;;;4.90;70.00;;;;;;5074461;28;20417;-69
2023/10/17 01:31:57;;;;;;;1.90;0.70;;;4.90;69.10;;;;;;5073176;28;20116;-69
2023/10/17 01:34:24;;;;;;;1.98;0.88;;;5.00;69.80;;;;;;5073657;28;20036;-69
2023/10/17 01:36:50;;;;;;;3.50;1.83;;;5.10;69.50;;;;;;5073581;28;20032;-69
2023/10/17 01:39:16;;;;;;;5.05;2.05;;;5.10;69.40;;;;;;5074245;28;20028;-69
2023/10/17 01:41:46;;;;;;;2.63;1.17;;;5.20;69.60;;;;;;5073115;28;20040;-69
2023/10/17 01:44:12;;;;;;;3.35;1.55;;;5.20;69.50;;;;;;5057531;28;20028;-69
2023/10/17 01:46:38;;;;;;;2.22;1.70;;;5.30;69.50;;;;;;5075039;28;20412;-69
2023/10/17 01:49:10;;;;;;;;;;;5.30;69.60;;;;;;5074652;28;20037;-69
2023/10/17 01:51:37;;;;;;;2.70;1.95;;;5.30;69.60;;;;;;5074200;28;19977;-69
2023/10/17 01:54:08;;;;;;;;;;;5.40;69.80;;;;;;5074232;28;20070;-69
2023/10/17 01:56:39;;;;;;;1.40;1.00;;;5.40;69.00;;;;;;5073673;28;20067;-69
2023/10/17 01:59:17;;;;;;;4.47;2.47;;;5.40;69.60;;;;;;5073996;28;20052;-69
2023/10/17 02:01:44;;;;;;;3.05;1.25;;;5.40;69.10;;;;;;5072766;28;20044;-69
2023/10/17 02:04:13;;;;;;;;;;;5.50;69.70;;;;;;5075159;28;20481;-69
2023/10/17 02:06:40;;;;;;;1.65;1.30;;;5.50;69.70;;;;;;5074928;28;19944;-69
2023/10/17 02:09:22;;;;;;;2.40;1.08;;;5.50;69.70;;;;;;5074583;28;20401;-69
2023/10/17 02:12:01;;;;;;;1.88;0.95;;;5.50;70.20;;;;;;5072525;28;20561;-68
2023/10/17 02:14:27;;;;;;;1.98;1.38;;;5.50;70.00;;;;;;5073298;28;20047;-69
2023/10/17 02:16:55;;;;;;;3.97;1.73;;;5.50;70.10;;;;;;5072877;28;20066;-68
2023/10/17 02:19:23;;;;;;;1.70;1.20;;;5.50;70.30;;;;;;5073458;28;20546;-69
2023/10/17 02:21:50;;;;;;;0.95;0.63;;;5.50;70.00;;;;;;5073923;28;20405;-69
2023/10/17 02:24:19;;;;;;;1.73;1.10;;;5.50;69.70;;;;;;5073093;28;20032;-69
2023/10/17 02:26:56;;;;;;;1.40;0.90;;;5.40;69.40;;;;;;5074405;28;20136;-68
2023/10/17 02:29:44;;;;;;;2.67;1.38;;;5.40;69.40;;;;;;5073430;28;20028;-69
2023/10/17 02:32:13;;;;;;;4.43;2.15;;;5.40;68.90;;;;;;5073343;28;20037;-69
2023/10/17 02:34:46;;;;;;;2.45;1.60;;;5.40;69.70;;;;;;5072798;28;20539;-69
2023/10/17 02:37:17;;;;;;;1.75;0.77;;;5.30;69.70;;;;;;5072639;28;20043;-69
2023/10/17 02:39:43;;;;;;;6.28;2.28;;;5.30;69.60;;;;;;5074246;28;20066;-69
2023/10/17 02:42:10;;;;;;;1.67;1.38;;;5.30;69.50;;;;;;5073379;28;20492;-69
2023/10/17 02:44:43;;;;;;;2.78;1.55;;;5.30;69.40;;;;;;5072811;28;20029;-69
2023/10/17 02:47:15;;;;;;;3.33;1.83;;;5.30;69.20;;;;;;5072454;28;20392;-69
2023/10/17 02:49:43;;;;;;;2.92;1.55;;;5.30;68.80;;;;;;5073063;28;20028;-69
2023/10/17 02:52:09;;;;;;;3.17;1.63;;;5.30;69.30;;;;;;5072910;28;20090;-69
2023/10/17 02:57:20;;;;;;;3.35;1.70;;;5.30;69.20;;;;;;5073500;28;20048;-69
2023/10/17 02:59:46;;;;;;;2.97;1.15;;;5.30;69.10;;;;;;5072684;28;20596;-69
2023/10/17 03:02:12;;;;;;;2.20;1.20;;;5.30;69.10;;;;;;5072678;28;20040;-69
2023/10/17 03:04:43;;;;;;;3.45;1.67;;;5.30;69.10;;;;;;5073345;28;20055;-68
2023/10/17 03:07:11;;;;;;;1.15;0.75;;;5.30;69.10;;;;;;5056173;28;20040;-69
2023/10/17 03:09:39;;;;;;;2.33;1.33;;;5.40;68.90;;;;;;5072625;28;20021;-68
2023/10/17 03:17:16;;;;;;;2.42;1.42;;;5.50;68.90;;;;;;5071961;28;19923;-69
2023/10/17 03:19:42;;;;;;;0.82;0.60;;;5.50;69.20;;;;;;5071944;28;20123;-69
2023/10/17 03:27:48;;;;;;;2.72;1.00;;;5.60;70.50;;;;;;5073341;28;20078;-69
2023/10/17 03:30:15;;;;;;;1.27;0.68;;;5.50;69.70;;;;;;5072572;28;20448;-69
2023/10/17 03:35:27;;;;;;;2.10;1.55;;;5.60;69.80;;;;;;5072665;28;20091;-69
2023/10/17 03:37:56;;;;;;;3.13;0.65;;;5.60;69.70;;;;;;5072002;28;20048;-69
2023/10/17 03:40:41;;;;;;;1.23;0.82;;;5.60;69.80;;;;;;5070970;28;20464;-68
2023/10/17 03:43:15;;;;;;;1.50;0.95;;;5.60;69.90;;;;;;5072911;28;20450;-70
2023/10/17 03:45:51;;;;;;;0.45;0.40;;;5.60;70.00;;;;;;5071142;28;20064;-69
2023/10/17 03:48:20;;;;;;;2.10;1.27;;;5.60;69.70;;;;;;5072999;28;20128;-69
2023/10/17 03:53:25;;;;;;;1.90;1.23;;;5.70;70.20;;;;;;5071922;28;20068;-69
2023/10/17 03:55:51;;;;;;;2.05;0.60;;;5.70;69.30;;;;;;5072345;28;20051;-69
2023/10/17 04:00:49;;;;;;;1.17;0.65;;;5.80;69.70;;;;;;5072095;28;20043;-69
2023/10/17 04:03:20;;;;;;;0.88;0.68;;;5.80;69.20;;;;;;5071316;28;20032;-69
2023/10/17 04:11:38;;;;;;;2.75;1.40;;;5.80;70.10;;;;;;5071764;28;20079;-69
2023/10/17 04:14:08;;;;;;;3.75;1.35;;;5.80;70.20;;;;;;5072525;28;20037;-68
2023/10/17 04:16:34;;;;;;;0.98;0.70;;;5.80;70.30;;;;;;5070860;28;20044;-68
2023/10/17 04:19:20;;;;;;;7.68;1.35;;;5.90;70.50;;;;;;5072494;28;20466;-69
2023/10/17 04:24:28;;;;;;;1.98;1.27;;;5.90;70.30;;;;;;5071527;28;20082;-69
2023/10/17 04:30:14;;;;;;;3.60;1.15;;;5.80;69.60;;;;;;5072534;28;20036;-68
2023/10/17 04:32:31;;;;;;;1.33;0.55;;;5.90;70.30;;;;;;5070386;28;20131;-69
2023/10/17 04:35:02;;;;;;;5.03;1.40;;;5.90;70.30;;;;;;5070584;28;20493;-68
2023/10/17 04:37:37;;;;;;;2.80;1.23;;;5.90;70.30;;;;;;5070886;28;20064;-68
2023/10/17 04:45:19;;;;;;;3.20;1.80;;;5.90;70.20;;;;;;5071900;28;20068;-69
2023/10/17 04:47:46;;;;;;;1.75;1.15;;;6.00;70.10;;;;;;5054402;28;20035;-69
2023/10/17 04:50:12;;;;;;;4.68;2.30;;;6.00;70.10;;;;;;5070178;28;20070;-69
2023/10/17 04:55:30;;;;;;;1.35;1.00;;;6.00;69.70;;;;;;5070782;28;20127;-69
2023/10/17 04:57:59;;;;;;;1.75;0.98;;;6.00;70.20;;;;;;5072132;28;20036;-68
2023/10/17 05:00:43;;;;;;;0.85;0.82;;;6.00;70.10;;;;;;5071270;28;20094;-70
2023/10/17 05:03:32;;;;;;;1.13;1.02;;;6.00;70.40;;;;;;5071018;28;20037;-69
2023/10/17 05:06:24;;;;;;;2.83;1.60;;;6.00;70.40;;;;;;5071567;28;20024;-69
2023/10/17 06:17:33;;;;;;;10.88;5.15;;;7.00;70.50;;;;;;5074893;28;20054;-69
2023/10/17 06:19:59;;;;;;;3.80;2.40;;;7.00;70.50;;;;;;5074464;28;20135;-69
2023/10/17 06:30:47;;;;;;;5.43;2.88;;;7.20;70.70;;;;;;5066478;28;20048;-70
2023/10/17 06:33:17;;;;;;;3.88;1.58;;;7.20;70.40;;;;;;5066366;28;20025;-69
2023/10/17 06:35:45;;;;;;;2.78;1.63;;;7.30;69.60;;;;;;5052636;28;20164;-70
2023/10/17 06:38:15;;;;;;;6.93;3.17;;;7.40;70.00;;;;;;5069944;28;20025;-69
2023/10/17 06:40:46;;;;;;;3.72;1.50;;;7.40;70.10;;;;;;5053124;28;20045;-69
2023/10/17 06:43:14;;;;;;;3.00;2.28;;;7.40;70.10;;;;;;5069353;28;20032;-69
2023/10/17 06:46:06;;;;;;;3.80;1.75;;;7.50;70.20;;;;;;5068785;28;20033;-69
2023/10/17 06:48:36;;;;;;;2.85;1.75;;;7.50;70.60;;;;;;5054289;28;20037;-69
2023/10/17 06:53:48;;;;;;;4.27;2.53;;;7.70;70.00;;;;;;5067210;28;20517;-69
2023/10/17 07:01:48;;;;;;;5.45;3.28;;;8.00;69.90;;;;;;5066122;28;20476;-70
2023/10/17 07:04:14;;;;;;;1.25;0.75;;;8.00;70.10;;;;;;5052172;28;20025;-69
2023/10/17 07:06:41;;;;;;;5.72;2.60;;;8.00;70.20;;;;;;5053443;28;20360;-69
2023/10/17 07:09:16;;;;;;;2.15;1.15;;;8.00;70.10;;;;;;5053653;28;20120;-69
2023/10/17 07:11:47;;;;;;;2.78;1.48;;;8.10;70.20;;;;;;5052536;28;20045;-69
2023/10/17 07:14:22;;;;;;;2.38;1.58;;;8.20;70.20;;;;;;5053558;28;20036;-70
2023/10/17 07:16:57;;;;;;;5.40;1.60;;;8.10;70.40;;;;;;5053038;28;20052;-69
2023/10/17 07:22:12;;;;;;;3.63;0.93;;;8.10;70.30;;;;;;5052341;28;20501;-68
2023/10/17 07:24:43;;;;;;;2.60;1.30;;;8.30;70.10;;;;;;5053276;28;20083;-69
2023/10/17 07:27:19;;;;;;;2.13;1.40;;;8.40;69.90;;;;;;5052940;28;20041;-69
2023/10/17 07:29:58;;;;;;;1.93;1.23;;;8.50;69.50;;;;;;5067674;28;20094;-69
2023/10/17 07:32:46;;;;;;;2.08;0.73;;;8.60;69.20;;;;;;5052515;28;20107;-69
2023/10/17 07:35:23;;;;;;;2.30;1.05;;;8.70;69.10;;;;;;5052736;28;20033;-69
2023/10/17 07:37:57;;;;;;;;;;;8.80;69.30;;;;;;5067904;28;20037;-69
2023/10/17 07:43:07;;;;;;;1.60;0.88;;;9.10;68.50;;;;;;5067423;28;20506;-69
2023/10/17 07:45:38;;;;;;;2.45;1.63;;;9.40;68.00;;;;;;5052517;28;20076;-69
2023/10/17 07:48:25;;;;;;;3.63;1.48;;;9.50;67.50;;;;;;5053000;28;20037;-69
2023/10/17 07:50:54;;;;;;;1.70;1.10;;;9.70;67.70;;;;;;5065131;28;20159;-69
2023/10/17 07:53:21;;;;;;;0.85;0.55;;;9.80;67.30;;;;;;5068285;28;20036;-69
2023/10/17 07:56:12;;;;;;;2.03;0.85;;;10.00;66.00;;;;;;5051055;28;20083;-69
2023/10/17 07:58:45;;;;;;;1.77;0.75;;;10.20;65.50;;;;;;5051736;28;20486;-69
2023/10/17 08:01:14;;;;;;;1.60;1.20;;;10.30;66.00;;;;;;5050554;28;20459;-69
2023/10/17 08:03:45;;;;;;;3.95;2.47;;;10.30;65.80;;;;;;5067568;28;20033;-69
2023/10/17 08:06:12;;;;;;;3.58;1.92;;;10.40;65.20;;;;;;5052548;28;20385;-69
2023/10/17 08:08:44;;;;;;;3.85;2.00;;;10.50;65.90;;;;;;5052167;28;20048;-69
2023/10/17 08:11:31;;;;;;;1.58;1.23;;;10.70;65.50;;;;;;5051734;28;20088;-69
2023/10/17 08:14:09;;;;;;;1.92;1.50;;;10.70;65.40;;;;;;5051579;28;20082;-69
2023/10/17 08:16:40;;;;;;;2.20;1.35;;;10.80;65.20;;;;;;5050795;28;20086;-69
2023/10/17 08:19:13;;;;;;;1.20;0.90;;;10.90;64.70;;;;;;5067608;28;20087;-69
2023/10/17 08:21:49;;;;;;;0.65;0.32;;;11.10;63.80;;;;;;5066151;28;20069;-69
2023/10/17 08:24:26;;;;;;;2.47;1.52;;;11.40;63.20;;;;;;5066885;28;20044;-69
2023/10/17 08:27:17;;;;;;;1.33;0.98;;;11.60;62.20;;;;;;5066069;28;20052;-69
2023/10/17 08:35:36;;;;;;;0.93;0.63;;;12.40;60.00;;;;;;5051914;28;20216;-69
2023/10/17 08:38:03;;;;;;;3.08;0.95;;;12.80;59.40;;;;;;5052304;28;20051;-69
2023/10/17 08:40:31;;;;;;;1.90;1.02;;;13.10;58.40;;;;;;5066586;28;20114;-68
2023/10/17 08:43:20;;;;;;;1.63;0.77;;;13.60;57.90;;;;;;5050920;28;20043;-69
2023/10/17 08:45:50;;;;;;;2.03;1.00;;;14.20;56.70;;;;;;5050613;28;20039;-69
2023/10/17 08:48:19;;;;;;;2.80;1.88;;;15.00;53.20;;;;;;5051212;28;20037;-69
2023/10/17 08:50:45;;;;;;;1.50;0.65;;;15.80;51.60;;;;;;5051337;28;20045;-69
2023/10/17 08:53:21;;;;;;;1.80;0.70;;;16.10;49.80;;;;;;5052174;28;20033;-69
2023/10/17 08:56:07;;;;;;;1.40;0.50;;;16.30;50.20;;;;;;5051904;28;20068;-69
2023/10/17 08:58:34;;;;;;;2.45;1.13;;;17.70;46.80;;;;;;5051048;28;20450;-69
2023/10/17 09:01:17;;;;;;;0.55;0.47;;;19.10;42.70;;;;;;5051318;28;20056;-69
2023/10/17 09:03:49;;;;;;;0.73;0.30;;;18.90;42.00;;;;;;5051778;28;20037;-69
2023/10/17 09:11:29;;;;;;;0.52;0.52;;;17.20;44.70;;;;;;5064356;28;20087;-68
2023/10/17 09:16:43;;;;;;;0.75;0.40;;;16.60;46.00;;;;;;5064970;28;20029;-69
2023/10/17 09:19:14;;;;;;;0.63;0.60;;;16.40;46.40;;;;;;5052091;28;20090;-69
2023/10/17 09:21:46;;;;;;;0.20;0.20;;;16.20;46.60;;;;;;5053382;28;20508;-69
2023/10/17 09:24:35;;;;;;;0.95;0.73;;;16.00;45.30;;;;;;5054488;28;20068;-68
2023/10/17 09:27:20;;;;;;;0.43;0.20;;;15.80;45.40;;;;;;5070304;28;20127;-69
2023/10/17 09:30:05;;;;;;;1.05;0.43;;;15.70;46.10;;;;;;5055557;28;20057;-69
2023/10/17 09:32:50;;;;;;;1.10;0.50;;;15.50;45.70;;;;;;5054087;28;20036;-69
2023/10/17 09:35:18;;;;;;;1.00;0.60;;;15.30;46.40;;;;;;5054908;28;20497;-69
2023/10/17 09:38:03;;;;;;;5.75;3.30;;;15.20;46.40;;;;;;5055545;28;20402;-69
2023/10/17 09:40:33;;;;;;;0.82;0.68;;;15.00;46.10;;;;;;5054384;28;20059;-69
2023/10/17 09:43:00;;;;;;;1.52;0.22;;;15.00;46.80;;;;;;5055287;28;20032;-69
2023/10/17 09:45:33;;;;;;;2.58;1.25;;;14.90;46.30;;;;;;5054921;28;20053;-69
2023/10/17 09:48:04;;;;;;;0.88;0.45;;;14.80;46.00;;;;;;5054045;28;20115;-69
2023/10/17 09:50:34;;;;;;;0.93;0.30;;;14.80;45.90;;;;;;5052985;28;20124;-69
2023/10/17 09:53:25;;;;;;;0.88;0.35;;;14.70;46.10;;;;;;5054171;28;20032;-69
2023/10/17 09:55:55;;;;;;;0.20;0.10;;;14.80;46.20;;;;;;5053373;28;20029;-69
2023/10/17 09:58:28;;;;;;;1.35;0.55;;;14.80;44.70;;;;;;5054268;28;20385;-68
2023/10/17 10:01:14;;;;;;;0.50;0.30;;;14.80;45.40;;;;;;5052947;28;20107;-68
2023/10/17 10:03:41;;;;;;;0.93;0.45;;;14.80;45.40;;;;;;5054805;28;20029;-68
2023/10/17 10:06:31;;;;;;;1.13;0.73;;;14.80;44.80;;;;;;5053219;28;20036;-69
2023/10/17 10:09:17;;;;;;;0.10;0.10;;;14.90;44.90;;;;;;5054938;28;20037;-68
2023/10/17 10:12:02;;;;;;;0.20;0.20;;;14.80;44.30;;;;;;5053925;28;20049;-68
2023/10/17 10:14:30;;;;;;;1.00;0.47;;;14.70;46.40;;;;;;5053388;28;20033;-69
2023/10/17 10:16:59;;;;;;;0.20;0.20;;;14.70;45.90;;;;;;5054164;28;20417;-69
2023/10/17 10:19:46;;;;;;;0.70;0.63;;;14.60;46.20;;;;;;5054568;28;20025;-68
2023/10/17 10:22:15;;;;;;;0.75;0.75;;;14.70;46.00;;;;;;5052400;28;20414;-69
2023/10/17 10:24:45;;;;;;;0.45;0.40;;;15.00;43.90;;;;;;5053367;28;20033;-69
2023/10/17 10:30:33;;;;;;;0.45;0.28;;;15.70;43.30;;;;;;5054424;28;20104;-68
2023/10/17 10:32:59;;;;;;;4.57;0.80;;;15.50;44.00;;;;;;5052752;28;20076;-69
2023/10/17 10:35:26;;;;;;;0.38;0.32;;;15.30;43.40;;;;;;5053732;28;20041;-68
2023/10/17 10:37:54;;;;;;;0.95;0.40;;;15.30;44.00;;;;;;5053247;28;20025;-69
2023/10/17 10:40:22;;;;;;;0.15;0.15;;;15.30;44.20;;;;;;5052011;28;20044;-68
2023/10/17 10:43:11;;;;;;;0.52;0.43;;;15.30;44.10;;;;;;5069695;28;20039;-69
2023/10/17 10:48:23;;;;;;;0.20;0.17;;;16.60;39.80;;;;;;5054299;28;20059;-69
2023/10/17 10:53:36;;;;;;;0.20;0.20;;;16.40;39.50;;;;;;5067284;28;20036;-69
2023/10/17 10:56:09;;;;;;;0.85;0.38;;;16.30;39.90;;;;;;5053624;28;20470;-68
2023/10/17 10:58:44;;;;;;;0.20;0.20;;;16.30;39.40;;;;;;5054047;28;20631;-69
2023/10/17 11:01:11;;;;;;;0.45;0.43;;;16.40;38.80;;;;;;5068475;28;20071;-69
2023/10/17 11:03:58;;;;;;;0.95;0.32;;;16.50;39.40;;;;;;5053748;28;20434;-69
2023/10/17 11:06:29;;;;;;;0.68;0.50;;;16.80;39.10;;;;;;5068917;28;20090;-69
2023/10/17 11:08:55;;;;;;;0.10;0.10;;;16.90;39.70;;;;;;5052670;28;20033;-69
2023/10/17 11:11:22;;;;;;;2.60;0.55;;;17.10;38.80;;;;;;5051473;28;20041;-69
2023/10/17 11:14:06;;;;;;;0.28;0.28;;;17.30;38.20;;;;;;5068979;28;20033;-69
2023/10/17 11:16:33;;;;;;;0.10;0.10;;;17.30;38.00;;;;;;5051957;28;20024;-69
2023/10/17 11:18:59;;;;;;;0.85;0.40;;;17.20;38.10;;;;;;5072548;28;20064;-69
2023/10/17 11:21:25;;;;;;;0.32;0.28;;;17.30;38.10;;;;;;5054266;28;20566;-69
2023/10/17 11:24:10;;;;;;;0.75;0.52;;;17.30;38.10;;;;;;5072139;28;20086;-69
2023/10/17 11:29:26;;;;;;;;;;;17.60;36.60;;;;;;5073941;28;20035;-69
2023/10/17 11:31:54;;;;;;;3.25;2.08;;;17.70;37.20;;;;;;5072333;28;19920;-69
2023/10/17 11:34:32;;;;;;;0.50;0.40;;;17.90;36.50;;;;;;5071657;28;20036;-69
2023/10/17 11:37:03;;;;;;;0.75;0.50;;;18.10;36.70;;;;;;5071383;28;20401;-69
2023/10/17 11:39:40;;;;;;;0.40;0.22;;;18.20;37.00;;;;;;5073236;28;20121;-69
2023/10/17 11:42:06;;;;;;;1.55;0.45;;;18.20;37.10;;;;;;5070237;28;20044;-68
2023/10/17 11:44:39;;;;;;;2.03;0.75;;;18.20;36.90;;;;;;5071452;28;20028;-69
2023/10/17 11:47:22;;;;;;;2.30;0.95;;;18.10;37.00;;;;;;5072414;28;20029;-69
2023/10/17 11:49:49;;;;;;;0.93;0.68;;;18.00;36.50;;;;;;5071960;28;20032;-69
2023/10/17 11:52:16;;;;;;;0.55;0.30;;;18.00;36.90;;;;;;5070627;28;20047;-69
2023/10/17 11:55:03;;;;;;;0.93;0.52;;;18.20;36.70;;;;;;5072848;28;20048;-69
2023/10/17 11:57:31;;;;;;;1.13;0.93;;;18.30;36.90;;;;;;5071407;28;20036;-69
2023/10/17 12:03:01;;;;;;;4.32;1.13;;;18.00;36.00;;;;;;5072324;28;20094;-69
2023/10/17 12:05:28;;;;;;;1.50;0.45;;;17.90;36.50;;;;;;5072337;28;20041;-69
2023/10/17 12:07:54;;;;;;;;;;;17.80;36.30;;;;;;5073348;28;20036;-69
2023/10/17 12:10:43;;;;;;;1.13;0.50;;;17.70;37.00;;;;;;5056776;28;19921;-69
2023/10/17 12:13:13;;;;;;;0.15;0.15;;;17.70;37.80;;;;;;5052416;28;20025;-69
2023/10/17 12:15:39;;;;;;;1.17;0.75;;;17.70;38.00;;;;;;5052344;28;20390;-69
2023/10/17 12:18:06;;;;;;;0.82;0.63;;;17.70;38.30;;;;;;5052595;28;20029;-69
2023/10/17 12:20:32;;;;;;;3.33;1.00;;;17.70;38.50;;;;;;5051510;28;20226;-69
2023/10/17 12:23:01;;;;;;;0.98;0.77;;;17.80;37.90;;;;;;5052470;28;20036;-69
2023/10/17 12:25:32;;;;;;;2.63;1.13;;;17.80;37.80;;;;;;5052167;28;20037;-69
2023/10/17 12:27:58;;;;;;;4.10;1.38;;;17.60;37.60;;;;;;5051281;28;20045;-69
2023/10/17 12:30:28;;;;;;;;;;;17.60;37.90;;;;;;5052160;28;20071;-69
2023/10/17 12:32:55;;;;;;;1.50;0.90;;;18.80;35.80;;;;;;5052610;28;19951;-69
2023/10/17 12:35:22;;;;;;;1.13;0.52;;;19.30;34.60;;;;;;5051920;28;20067;-68
2023/10/17 12:37:52;;;;;;;0.30;0.30;;;19.80;35.00;;;;;;5052415;28;20041;-69
2023/10/17 12:53:13;;;;;;;0.68;0.55;;;20.70;32.60;;;;;;5130627;27;20628;-67
2023/10/17 12:55:43;;;;;;;1.55;1.15;;;20.20;33.40;;;;;;5130241;27;20410;-67
2023/10/17 12:58:18;;;;;;;0.77;0.50;;;19.70;33.80;;;;;;5129494;27;20066;-67
2023/10/17 13:00:49;;;;;;;1.58;0.57;;;19.20;34.70;;;;;;5111066;27;20036;-67
2023/10/17 13:03:15;;;;;;;1.50;0.60;;;18.70;35.00;;;;;;5069841;28;20041;-67
2023/10/17 13:05:41;;;;;;;0.57;0.50;;;18.40;35.90;;;;;;5067719;28;20040;-67
2023/10/17 13:08:07;;;;;;;1.10;0.47;;;18.10;37.00;;;;;;5069481;28;20024;-67
2023/10/17 13:10:34;;;;;;;1.95;0.57;;;17.80;36.70;;;;;;5072750;28;20044;-67
2023/10/17 13:13:00;;;;;;;1.27;0.80;;;17.60;37.10;;;;;;5089570;28;20043;-67
2023/10/17 13:15:26;;;;;;;0.38;0.32;;;17.40;37.40;;;;;;5089142;28;20032;-67
2023/10/17 13:17:55;;;;;;;2.22;1.45;;;17.40;37.70;;;;;;5088110;28;20043;-67
2023/10/17 13:20:28;;;;;;;0.98;0.40;;;17.20;38.30;;;;;;5087122;28;20388;-67
2023/10/17 13:22:56;;;;;;;2.83;1.25;;;17.10;38.40;;;;;;5088062;28;20134;-67
2023/10/17 13:25:22;;;;;;;0.20;0.20;;;17.00;38.30;;;;;;5087627;28;20025;-67
2023/10/17 13:27:48;;;;;;;0.75;0.57;;;16.90;38.50;;;;;;5088098;28;20040;-67
2023/10/17 13:30:15;;;;;;;0.30;0.30;;;16.80;38.60;;;;;;5088277;28;20028;-68
2023/10/17 13:32:41;;;;;;;0.93;0.30;;;16.70;38.90;;;;;;5087882;28;20093;-67
2023/10/17 13:35:08;;;;;;;1.10;0.77;;;16.60;39.20;;;;;;5088601;28;20025;-67
2023/10/17 13:37:34;;;;;;;0.90;0.60;;;16.50;39.50;;;;;;5071032;28;20028;-67
2023/10/17 13:40:01;;;;;;;1.55;0.85;;;16.60;39.70;;;;;;5087865;28;20032;-67
2023/10/17 13:42:27;;;;;;;0.82;0.50;;;16.70;39.80;;;;;;5086946;28;20056;-67
2023/10/17 13:44:54;;;;;;;0.90;0.52;;;16.80;39.90;;;;;;5088844;28;20111;-67
2023/10/17 13:47:21;;;;;;;1.33;0.90;;;16.80;39.80;;;;;;5088823;28;20094;-67
2023/10/17 13:49:47;;;;;;;0.10;0.10;;;16.70;39.50;;;;;;5088967;28;20020;-67
2023/10/17 13:52:17;;;;;;;;;;;16.70;39.60;;;;;;5083853;28;20505;-67
2023/10/17 13:54:44;;;;;;;1.20;0.80;;;16.60;39.40;;;;;;5073771;28;19977;-67
2023/10/17 13:57:12;;;;;;;1.10;1.00;;;16.50;39.60;;;;;;5057130;28;20037;-67
2023/10/17 13:59:38;;;;;;;1.00;0.85;;;16.50;40.30;;;;;;5057561;28;20032;-67
2023/10/17 14:02:24;;;;;;;1.17;0.75;;;16.50;40.20;;;;;;5072875;28;20040;-67
2023/10/17 14:04:50;;;;;;;0.95;0.70;;;16.60;40.40;;;;;;5074966;28;20085;-67
2023/10/17 14:07:18;;;;;;;;;;;16.70;39.80;;;;;;5075596;28;20044;-67
2023/10/17 14:09:44;;;;;;;;;;;16.70;39.70;;;;;;5075545;28;19912;-67
2023/10/17 14:12:11;;;;;;;2.97;1.05;;;16.80;39.60;;;;;;5072747;28;20023;-67
2023/10/17 14:14:37;;;;;;;0.65;0.55;;;16.80;39.60;;;;;;5062118;28;20435;-67
2023/10/17 14:17:04;;;;;;;3.10;1.33;;;16.80;39.60;;;;;;5055699;28;20488;-67
2023/10/17 14:19:44;;;;;;;1.10;0.63;;;16.80;39.40;;;;;;5073661;28;20546;-67
2023/10/17 14:22:38;;;;;;;0.50;0.43;;;16.80;39.30;;;;;;5072755;28;20129;-67
2023/10/17 14:25:07;;;;;;;0.20;0.20;;;16.80;38.40;;;;;;5073484;28;20057;-67
2023/10/17 14:27:33;;;;;;;1.88;1.10;;;16.60;39.30;;;;;;5074917;28;20036;-67
2023/10/17 14:30:00;;;;;;;6.97;0.73;;;16.60;39.70;;;;;;5074593;28;20102;-67
2023/10/17 14:32:28;;;;;;;1.88;1.23;;;16.40;39.60;;;;;;5072631;28;20040;-67
2023/10/17 14:34:56;;;;;;;2.78;1.70;;;16.30;39.50;;;;;;5074179;28;20025;-67
2023/10/17 14:37:23;;;;;;;1.13;0.80;;;16.20;39.50;;;;;;5072907;28;20111;-67
2023/10/17 14:40:11;;;;;;;4.43;1.98;;;16.10;39.70;;;;;;5074574;28;20102;-67
2023/10/17 14:42:39;;;;;;;3.67;2.53;;;16.10;40.30;;;;;;5056194;28;20436;-67
2023/10/17 14:45:06;;;;;;;1.13;0.70;;;16.10;40.80;;;;;;5061923;28;20016;-67
2023/10/17 14:47:32;;;;;;;1.98;1.05;;;15.90;41.00;;;;;;5064848;28;20452;-67
2023/10/17 14:49:58;;;;;;;3.40;2.40;;;15.90;41.40;;;;;;5073302;28;20090;-67
2023/10/17 14:52:24;;;;;;;2.05;1.27;;;15.90;41.90;;;;;;5053096;28;20053;-67
2023/10/17 14:54:50;;;;;;;3.20;1.58;;;15.80;41.70;;;;;;5053430;28;20048;-67
2023/10/17 14:57:16;;;;;;;;;;;15.80;41.90;;;;;;5054641;28;20400;-67
2023/10/17 14:59:42;;;;;;;3.15;1.48;;;15.80;42.00;;;;;;5052490;28;19987;-67
2023/10/17 15:02:10;;;;;;;1.80;0.90;;;15.80;42.20;;;;;;5069515;28;20040;-67
2023/10/17 15:04:37;;;;;;;0.98;0.60;;;15.80;42.40;;;;;;5068556;28;20497;-67
2023/10/17 15:07:04;;;;;;;0.60;0.47;;;15.70;42.70;;;;;;5072335;28;20044;-67
2023/10/17 15:09:30;;;;;;;2.42;1.05;;;15.60;42.80;;;;;;5074010;28;20032;-67
2023/10/17 15:11:56;;;;;;;0.63;0.40;;;15.50;43.10;;;;;;5054479;28;20536;-67
2023/10/17 15:14:22;;;;;;;1.48;0.98;;;15.40;43.40;;;;;;5051788;28;20033;-67
2023/10/17 15:16:49;;;;;;;1.58;0.68;;;15.30;44.00;;;;;;5051841;28;20111;-67
2023/10/17 15:19:15;;;;;;;;;;;15.10;44.40;;;;;;5051366;28;20033;-67
2023/10/17 15:21:41;;;;;;;2.20;1.95;;;15.00;44.50;;;;;;5045988;28;19959;-67
2023/10/17 15:24:12;;;;;;;0.60;0.60;;;14.90;45.20;;;;;;5052830;28;20033;-67
2023/10/17 15:26:38;;;;;;;2.65;1.20;;;14.80;45.60;;;;;;5053063;28;20056;-67
2023/10/17 15:29:04;;;;;;;;;;;14.70;45.70;;;;;;5053753;28;20032;-67
2023/10/17 15:31:30;;;;;;;0.95;0.52;;;14.60;45.60;;;;;;5047361;28;20382;-67
2023/10/17 15:33:56;;;;;;;2.83;1.65;;;14.50;46.30;;;;;;5054826;28;20028;-67
2023/10/17 15:39:12;;;;;;;2.85;0.73;;;14.30;47.70;;;;;;5066684;28;20114;-67
2023/10/17 15:41:39;;;;;;;3.25;1.33;;;14.20;47.80;;;;;;5059201;28;20197;-67
2023/10/17 15:44:05;;;;;;;7.18;4.07;;;14.10;48.10;;;;;;5048707;28;20147;-67
2023/10/17 15:46:31;;;;;;;;;;;14.00;48.20;;;;;;5052839;28;20029;-67
2023/10/17 15:48:57;;;;;;;2.67;2.00;;;13.90;48.00;;;;;;5052982;28;19975;-67
2023/10/17 15:51:26;;;;;;;6.18;2.20;;;13.80;48.70;;;;;;5051865;28;20053;-67
2023/10/17 15:53:53;;;;;;;3.08;1.38;;;13.70;49.10;;;;;;5056449;28;20025;-67
2023/10/17 15:56:28;;;;;;;2.58;1.20;;;13.60;49.00;;;;;;5062818;28;20408;-66
2023/10/17 15:58:54;;;;;;;1.40;0.95;;;13.50;49.90;;;;;;5061593;28;20031;-67
2023/10/17 16:01:20;;;;;;;1.55;0.98;;;13.40;50.10;;;;;;5059070;28;20041;-67
2023/10/17 16:03:46;;;;;;;1.90;1.00;;;13.40;50.30;;;;;;5051476;28;20036;-67
2023/10/17 16:06:14;;;;;;;2.83;1.63;;;13.30;50.50;;;;;;5034471;28;20446;-67
2023/10/17 16:08:41;;;;;;;2.85;2.00;;;13.20;50.60;;;;;;5014943;28;20068;-67
2023/10/17 16:11:07;;;;;;;3.08;1.80;;;13.20;51.00;;;;;;5054658;28;20037;-67
2023/10/17 16:13:33;;;;;;;2.10;1.30;;;13.10;51.30;;;;;;5072371;28;20074;-67
2023/10/17 16:16:01;;;;;;;10.13;2.63;;;13.10;51.60;;;;;;5070613;28;20045;-67
2023/10/17 16:18:29;;;;;;;1.42;0.82;;;13.00;51.70;;;;;;5071535;28;20054;-67
2023/10/17 16:20:56;;;;;;;3.05;1.92;;;13.00;51.70;;;;;;5071384;28;20094;-67